createdAt,value
2019-03-23T00:00:24.346Z,100438.33
2019-03-23T00:00:55.547Z,100437.90
2019-03-23T00:01:26.851Z,100435.30
2019-03-23T00:01:58.077Z,100442.67
2019-03-23T00:02:29.302Z,100437.92
2019-03-23T00:03:00.510Z,100437.05
2019-03-23T00:03:31.715Z,100435.78
2019-03-23T00:04:02.940Z,100432.73
2019-03-23T00:04:34.176Z,100431.91
2019-03-23T00:05:05.403Z,100438.83
2019-03-23T00:05:36.621Z,100436.66
2019-03-23T00:06:07.877Z,100427.13
2019-03-23T00:06:39.093Z,100429.33
2019-03-23T00:07:10.299Z,100432.80
2019-03-23T00:07:41.508Z,100429.34
2019-03-23T00:08:12.722Z,100432.80
2019-03-23T00:08:43.934Z,100428.47
2019-03-23T00:09:15.165Z,100425.45
2019-03-23T00:09:46.373Z,100429.36
2019-03-23T00:10:17.577Z,100429.80
2019-03-23T00:10:48.818Z,100429.80
2019-03-23T00:11:20.065Z,100428.06
2019-03-23T00:11:51.280Z,100427.61
2019-03-23T00:12:22.485Z,100425.91
2019-03-23T00:12:53.692Z,100428.50
2019-03-23T00:13:24.909Z,100425.00
2019-03-23T00:13:56.097Z,100425.44
2019-03-23T00:14:27.311Z,100422.42
2019-03-23T00:14:58.513Z,100428.05
2019-03-23T00:15:30.657Z,100425.88
2019-03-23T00:16:01.879Z,100419.80
2019-03-23T00:16:33.131Z,100418.93
2019-03-23T00:17:04.378Z,100419.35
2019-03-23T00:17:35.651Z,100418.91
2019-03-23T00:18:06.863Z,100419.33
2019-03-23T00:18:38.079Z,100416.30
2019-03-23T00:19:09.294Z,100415.84
2019-03-23T00:19:40.515Z,100416.69
2019-03-23T00:20:11.878Z,100423.19
2019-03-23T00:20:43.085Z,100414.08
2019-03-23T00:21:14.341Z,100419.69
2019-03-23T00:21:45.613Z,100417.08
2019-03-23T00:22:16.827Z,100414.06
2019-03-23T00:22:48.033Z,100415.80
2019-03-23T00:23:19.243Z,100415.38
2019-03-23T00:23:50.455Z,100415.36
2019-03-23T00:24:21.673Z,100411.91
2019-03-23T00:24:52.882Z,100414.49
2019-03-23T00:25:24.071Z,100415.38
2019-03-23T00:25:55.275Z,100415.34
2019-03-23T00:26:26.471Z,100413.18
2019-03-23T00:26:57.713Z,100413.62
2019-03-23T00:27:28.918Z,100416.21
2019-03-23T00:28:00.151Z,100412.31
2019-03-23T00:28:31.366Z,100411.45
2019-03-23T00:29:02.575Z,100413.18
2019-03-23T00:29:33.779Z,100412.30
2019-03-23T00:30:05.042Z,100411.85
2019-03-23T00:30:36.249Z,100412.28
2019-03-23T00:31:07.458Z,100405.79
2019-03-23T00:31:38.672Z,100404.92
2019-03-23T00:32:09.887Z,100403.16
2019-03-23T00:32:41.132Z,100401.42
2019-03-23T00:33:12.353Z,100404.04
2019-03-23T00:33:43.542Z,100399.70
2019-03-23T00:34:14.749Z,100407.05
2019-03-23T00:34:46.000Z,100399.70
2019-03-23T00:35:17.220Z,100395.33
2019-03-23T00:35:48.429Z,100399.65
2019-03-23T00:36:19.684Z,100397.48
2019-03-23T00:36:50.892Z,100400.06
2019-03-23T00:37:22.090Z,100401.80
2019-03-23T00:37:53.308Z,100398.33
2019-03-23T00:38:24.565Z,100402.66
2019-03-23T00:38:55.770Z,100404.84
2019-03-23T00:39:27.023Z,100404.43
2019-03-23T00:39:58.247Z,100399.23
2019-03-23T00:40:29.452Z,100399.23
2019-03-23T00:41:00.722Z,100399.66
2019-03-23T00:41:31.929Z,100396.16
2019-03-23T00:42:03.135Z,100396.18
2019-03-23T00:42:34.337Z,100396.58
2019-03-23T00:43:05.554Z,100392.70
2019-03-23T00:43:36.757Z,100395.70
2019-03-23T00:44:07.960Z,100398.30
2019-03-23T00:44:39.168Z,100390.08
2019-03-23T00:45:10.374Z,100390.93
2019-03-23T00:45:41.613Z,100391.80
2019-03-23T00:46:12.866Z,100392.68
2019-03-23T00:46:44.106Z,100395.71
2019-03-23T00:47:15.310Z,100389.63
2019-03-23T00:47:46.510Z,100391.36
2019-03-23T00:48:17.715Z,100388.74
2019-03-23T00:48:48.953Z,100393.06
2019-03-23T00:49:20.166Z,100390.06
2019-03-23T00:49:51.372Z,100393.49
2019-03-23T00:50:22.570Z,100385.23
2019-03-23T00:50:53.772Z,100393.45
2019-03-23T00:51:25.038Z,100385.63
2019-03-23T00:51:56.246Z,100385.22
2019-03-23T00:52:27.457Z,100386.95
2019-03-23T00:52:58.665Z,100384.75
2019-03-23T00:53:29.868Z,100382.95
2019-03-23T00:54:01.088Z,100380.77
2019-03-23T00:54:32.286Z,100383.36
2019-03-23T00:55:03.488Z,100381.62
2019-03-23T00:55:34.701Z,100384.19
2019-03-23T00:56:05.934Z,100385.48
2019-03-23T00:56:37.184Z,100382.02
2019-03-23T00:57:08.381Z,100381.14
2019-03-23T00:57:39.581Z,100384.61
2019-03-23T00:58:10.791Z,100380.71
2019-03-23T00:58:42.119Z,100383.31
2019-03-23T00:59:13.380Z,100380.28
2019-03-23T00:59:44.580Z,100376.77
2019-03-23T01:00:15.785Z,100375.47
2019-03-23T01:00:46.990Z,100378.95
2019-03-23T01:01:18.197Z,100381.53
2019-03-23T01:01:49.406Z,100381.55
2019-03-23T01:02:20.614Z,100383.70
2019-03-23T01:02:51.812Z,100380.67
2019-03-23T01:03:23.012Z,100378.55
2019-03-23T01:03:54.238Z,100380.71
2019-03-23T01:04:25.499Z,100374.22
2019-03-23T01:04:56.689Z,100382.92
2019-03-23T01:05:27.936Z,100376.86
2019-03-23T01:05:59.136Z,100380.33
2019-03-23T01:06:30.339Z,100375.98
2019-03-23T01:07:01.535Z,100376.84
2019-03-23T01:07:32.751Z,100376.86
2019-03-23T01:08:03.970Z,100380.34
2019-03-23T01:08:35.168Z,100377.30
2019-03-23T01:09:06.380Z,100378.17
2019-03-23T01:09:37.642Z,100378.61
2019-03-23T01:10:08.854Z,100379.46
2019-03-23T01:10:40.055Z,100382.06
2019-03-23T01:11:11.257Z,100382.06
2019-03-23T01:11:42.460Z,100382.48
2019-03-23T01:12:13.655Z,100383.77
2019-03-23T01:12:44.854Z,100382.49
2019-03-23T01:13:16.050Z,100381.20
2019-03-23T01:13:47.253Z,100382.95
2019-03-23T01:14:18.593Z,100381.62
2019-03-23T01:14:49.804Z,100378.63
2019-03-23T01:15:21.005Z,100382.10
2019-03-23T01:15:52.235Z,100379.07
2019-03-23T01:16:23.421Z,100378.64
2019-03-23T01:16:54.630Z,100380.84
2019-03-23T01:17:25.833Z,100379.58
2019-03-23T01:17:57.043Z,100376.13
2019-03-23T01:18:28.241Z,100375.70
2019-03-23T01:18:59.506Z,100369.66
2019-03-23T01:19:30.711Z,100371.87
2019-03-23T01:20:01.921Z,100371.00
2019-03-23T01:20:33.117Z,100370.14
2019-03-23T01:21:04.365Z,100371.02
2019-03-23T01:21:35.612Z,100369.27
2019-03-23T01:22:06.825Z,100369.68
2019-03-23T01:22:38.035Z,100369.67
2019-03-23T01:23:09.239Z,100366.63
2019-03-23T01:23:40.456Z,100370.94
2019-03-23T01:24:11.673Z,100370.03
2019-03-23T01:24:42.879Z,100370.41
2019-03-23T01:25:14.128Z,100370.80
2019-03-23T01:25:45.345Z,100374.19
2019-03-23T01:26:16.608Z,100374.14
2019-03-23T01:26:47.840Z,100374.13
2019-03-23T01:27:19.049Z,100374.07
2019-03-23T01:27:50.259Z,100373.63
2019-03-23T01:28:21.467Z,100374.49
2019-03-23T01:28:52.677Z,100371.45
2019-03-23T01:29:23.887Z,100373.18
2019-03-23T01:29:55.079Z,100374.07
2019-03-23T01:30:26.330Z,100364.12
2019-03-23T01:30:57.539Z,100368.05
2019-03-23T01:31:28.748Z,100367.17
2019-03-23T01:31:59.959Z,100369.34
2019-03-23T01:32:31.173Z,100368.87
2019-03-23T01:33:02.386Z,100364.53
2019-03-23T01:33:33.588Z,100367.61
2019-03-23T01:34:04.798Z,100367.20
2019-03-23T01:34:36.005Z,100366.31
2019-03-23T01:35:07.207Z,100366.36
2019-03-23T01:35:38.286Z,100365.50
2019-03-23T01:36:09.494Z,100363.37
2019-03-23T01:36:40.710Z,100364.23
2019-03-23T01:37:11.928Z,100368.14
2019-03-23T01:37:43.135Z,100364.72
2019-03-23T01:38:14.333Z,100362.52
2019-03-23T01:38:45.538Z,100362.98
2019-03-23T01:39:16.758Z,100364.72
2019-03-23T01:39:47.983Z,100361.30
2019-03-23T01:40:19.192Z,100356.09
2019-03-23T01:40:50.452Z,100360.44
2019-03-23T01:41:21.655Z,100362.19
2019-03-23T01:41:52.883Z,100356.13
2019-03-23T01:42:24.085Z,100356.16
2019-03-23T01:42:55.305Z,100354.44
2019-03-23T01:43:26.511Z,100354.92
2019-03-23T01:43:57.710Z,100352.77
2019-03-23T01:44:28.917Z,100347.59
2019-03-23T01:45:00.316Z,100348.42
2019-03-23T01:45:31.562Z,100356.66
2019-03-23T01:46:02.810Z,100355.39
2019-03-23T01:46:34.060Z,100360.17
2019-03-23T01:47:05.266Z,100354.11
2019-03-23T01:47:36.503Z,100357.17
2019-03-23T01:48:07.722Z,100358.95
2019-03-23T01:48:39.327Z,100354.19
2019-03-23T01:49:10.574Z,100355.94
2019-03-23T01:49:41.760Z,100353.36
2019-03-23T01:50:12.971Z,100360.28
2019-03-23T01:50:44.166Z,100349.94
2019-03-23T01:51:15.365Z,100353.39
2019-03-23T01:51:46.612Z,100349.09
2019-03-23T01:52:17.817Z,100346.92
2019-03-23T01:52:49.037Z,100349.53
2019-03-23T01:53:20.244Z,100347.36
2019-03-23T01:53:51.455Z,100345.64
2019-03-23T01:54:22.651Z,100349.58
2019-03-23T01:54:53.844Z,100349.98
2019-03-23T01:55:25.042Z,100349.99
2019-03-23T01:55:56.254Z,100346.53
2019-03-23T01:56:27.519Z,100343.94
2019-03-23T01:56:58.723Z,100341.33
2019-03-23T01:57:29.936Z,100345.21
2019-03-23T01:58:01.160Z,100340.92
2019-03-23T01:58:32.383Z,100342.66
2019-03-23T01:59:03.594Z,100346.56
2019-03-23T01:59:34.834Z,100343.52
2019-03-23T02:00:06.074Z,100350.05
2019-03-23T02:00:37.284Z,100349.65
2019-03-23T02:01:08.499Z,100349.21
2019-03-23T02:01:39.700Z,100349.24
2019-03-23T02:02:10.894Z,100353.56
2019-03-23T02:02:42.113Z,100350.13
2019-03-23T02:03:13.316Z,100347.11
2019-03-23T02:03:44.523Z,100353.13
2019-03-23T02:04:15.739Z,100352.73
2019-03-23T02:04:47.027Z,100351.86
2019-03-23T02:05:18.228Z,100348.40
2019-03-23T02:05:49.419Z,100353.19
2019-03-23T02:06:20.666Z,100348.86
2019-03-23T02:06:51.878Z,100347.99
2019-03-23T02:07:23.087Z,100351.03
2019-03-23T02:07:54.296Z,100353.20
2019-03-23T02:08:25.509Z,100351.06
2019-03-23T02:08:56.708Z,100349.77
2019-03-23T02:09:27.906Z,100351.48
2019-03-23T02:09:59.140Z,100352.34
2019-03-23T02:10:30.399Z,100351.91
2019-03-23T02:11:01.601Z,100355.34
2019-03-23T02:11:32.863Z,100354.93
2019-03-23T02:12:04.079Z,100349.73
2019-03-23T02:12:35.304Z,100349.73
2019-03-23T02:13:06.515Z,100347.56
2019-03-23T02:13:37.724Z,100344.53
2019-03-23T02:14:08.987Z,100344.53
2019-03-23T02:14:40.165Z,100336.77
2019-03-23T02:15:11.386Z,100344.56
2019-03-23T02:15:42.629Z,100347.14
2019-03-23T02:16:13.835Z,100345.42
2019-03-23T02:16:45.039Z,100346.72
2019-03-23T02:17:16.278Z,100349.72
2019-03-23T02:17:47.477Z,100346.71
2019-03-23T02:18:18.688Z,100347.98
2019-03-23T02:18:49.890Z,100349.27
2019-03-23T02:19:21.096Z,100343.64
2019-03-23T02:19:52.344Z,100347.94
2019-03-23T02:20:23.535Z,100349.26
2019-03-23T02:20:54.771Z,100350.54
2019-03-23T02:21:25.973Z,100347.08
2019-03-23T02:21:57.175Z,100345.78
2019-03-23T02:22:28.445Z,100347.05
2019-03-23T02:22:59.663Z,100344.02
2019-03-23T02:23:30.871Z,100344.45
2019-03-23T02:24:02.074Z,100348.77
2019-03-23T02:24:33.274Z,100347.89
2019-03-23T02:25:04.493Z,100345.31
2019-03-23T02:25:35.696Z,100348.30
2019-03-23T02:26:06.900Z,100343.99
2019-03-23T02:26:38.139Z,100340.95
2019-03-23T02:27:09.307Z,100345.27
2019-03-23T02:27:40.551Z,100343.99
2019-03-23T02:28:11.752Z,100341.39
2019-03-23T02:28:42.970Z,100345.29
2019-03-23T02:29:14.226Z,100337.50
2019-03-23T02:29:45.415Z,100339.22
2019-03-23T02:30:16.640Z,100338.80
2019-03-23T02:30:47.843Z,100340.96
2019-03-23T02:31:19.041Z,100345.70
2019-03-23T02:31:50.244Z,100344.41
2019-03-23T02:32:21.473Z,100344.84
2019-03-23T02:32:52.682Z,100344.41
2019-03-23T02:33:23.894Z,100340.96
2019-03-23T02:33:55.097Z,100345.72
2019-03-23T02:34:26.333Z,100339.70
2019-03-23T02:34:57.534Z,100343.59
2019-03-23T02:35:28.762Z,100341.42
2019-03-23T02:35:59.986Z,100344.88
2019-03-23T02:36:31.204Z,100339.69
2019-03-23T02:37:02.406Z,100339.24
2019-03-23T02:37:33.589Z,100343.59
2019-03-23T02:38:04.798Z,100340.14
2019-03-23T02:38:36.005Z,100343.59
2019-03-23T02:39:07.248Z,100339.26
2019-03-23T02:39:38.466Z,100341.42
2019-03-23T02:40:09.680Z,100348.81
2019-03-23T02:40:40.889Z,100345.31
2019-03-23T02:41:12.094Z,100350.52
2019-03-23T02:41:43.338Z,100344.05
2019-03-23T02:42:14.547Z,100340.16
2019-03-23T02:42:45.769Z,100349.67
2019-03-23T02:43:16.976Z,100350.52
2019-03-23T02:43:48.173Z,100350.52
2019-03-23T02:44:19.396Z,100354.00
2019-03-23T02:44:50.612Z,100347.08
2019-03-23T02:45:21.899Z,100355.73
2019-03-23T02:45:54.203Z,100354.00
2019-03-23T02:46:25.418Z,100352.27
2019-03-23T02:46:56.640Z,100350.52
2019-03-23T02:47:27.850Z,100351.36
2019-03-23T02:47:59.085Z,100353.08
2019-03-23T02:48:30.336Z,100346.61
2019-03-23T02:49:01.542Z,100347.00
2019-03-23T02:49:32.741Z,100350.48
2019-03-23T02:50:03.955Z,100348.73
2019-03-23T02:50:35.159Z,100350.48
2019-03-23T02:51:06.363Z,100347.45
2019-03-23T02:51:39.748Z,100349.62
2019-03-23T02:52:10.501Z,100349.62
2019-03-23T02:52:41.708Z,100350.06
2019-03-23T02:53:12.904Z,100347.47
2019-03-23T02:53:44.163Z,100346.19
2019-03-23T02:54:15.394Z,100342.70
2019-03-23T02:54:46.663Z,100344.02
2019-03-23T02:55:17.865Z,100343.59
2019-03-23T02:55:49.057Z,100350.09
2019-03-23T02:56:20.260Z,100346.22
2019-03-23T02:56:51.470Z,100351.41
2019-03-23T02:57:22.684Z,100353.13
2019-03-23T02:57:53.946Z,100349.67
2019-03-23T02:58:25.157Z,100342.75
2019-03-23T02:58:56.347Z,100350.11
2019-03-23T02:59:27.586Z,100354.00
2019-03-23T02:59:58.795Z,100353.11
2019-03-23T03:00:29.992Z,100350.52
2019-03-23T03:01:01.219Z,100354.85
2019-03-23T03:01:32.421Z,100354.85
2019-03-23T03:02:03.669Z,100352.27
2019-03-23T03:02:34.898Z,100354.44
2019-03-23T03:03:06.114Z,100357.90
2019-03-23T03:03:37.315Z,100355.73
2019-03-23T03:04:08.598Z,100354.89
2019-03-23T03:04:39.804Z,100360.52
2019-03-23T03:05:11.011Z,100356.66
2019-03-23T03:05:42.246Z,100364.44
2019-03-23T03:06:13.453Z,100358.41
2019-03-23T03:06:44.724Z,100363.59
2019-03-23T03:07:15.934Z,100359.70
2019-03-23T03:07:47.154Z,100359.69
2019-03-23T03:08:18.349Z,100355.37
2019-03-23T03:08:49.559Z,100360.12
2019-03-23T03:09:20.781Z,100357.55
2019-03-23T03:09:52.047Z,100349.34
2019-03-23T03:10:23.270Z,100354.12
2019-03-23T03:10:54.466Z,100354.98
2019-03-23T03:11:25.662Z,100355.45
2019-03-23T03:11:56.899Z,100352.39
2019-03-23T03:12:28.067Z,100351.56
2019-03-23T03:12:59.261Z,100359.80
2019-03-23T03:13:30.498Z,100351.59
2019-03-23T03:14:01.686Z,100350.72
2019-03-23T03:14:32.899Z,100354.64
2019-03-23T03:15:04.135Z,100354.20
2019-03-23T03:15:35.359Z,100353.36
2019-03-23T03:16:06.552Z,100353.37
2019-03-23T03:16:37.837Z,100352.03
2019-03-23T03:17:09.051Z,100354.63
2019-03-23T03:17:40.274Z,100360.24
2019-03-23T03:18:11.481Z,100355.05
2019-03-23T03:18:42.698Z,100360.67
2019-03-23T03:19:13.938Z,100357.62
2019-03-23T03:19:45.147Z,100359.36
2019-03-23T03:20:16.344Z,100356.78
2019-03-23T03:20:47.553Z,100357.22
2019-03-23T03:21:18.752Z,100360.67
2019-03-23T03:21:49.957Z,100355.94
2019-03-23T03:22:21.162Z,100358.53
2019-03-23T03:22:52.364Z,100355.06
2019-03-23T03:23:23.599Z,100349.00
2019-03-23T03:23:54.845Z,100353.76
2019-03-23T03:24:26.087Z,100345.55
2019-03-23T03:24:57.335Z,100348.55
2019-03-23T03:25:28.546Z,100347.70
2019-03-23T03:25:59.757Z,100348.14
2019-03-23T03:26:30.976Z,100348.99
2019-03-23T03:27:02.177Z,100350.30
2019-03-23T03:27:33.393Z,100349.86
2019-03-23T03:28:04.598Z,100345.55
2019-03-23T03:28:35.847Z,100353.75
2019-03-23T03:29:07.051Z,100349.86
2019-03-23T03:29:38.270Z,100348.13
2019-03-23T03:30:09.465Z,100348.55
2019-03-23T03:30:40.670Z,100350.75
2019-03-23T03:31:11.905Z,100348.13
2019-03-23T03:31:43.139Z,100347.30
2019-03-23T03:32:14.360Z,100342.11
2019-03-23T03:32:45.843Z,100349.90
2019-03-23T03:33:17.038Z,100345.58
2019-03-23T03:33:48.290Z,100345.16
2019-03-23T03:34:19.526Z,100343.42
2019-03-23T03:34:50.755Z,100346.00
2019-03-23T03:35:22.013Z,100341.27
2019-03-23T03:35:53.204Z,100347.33
2019-03-23T03:36:24.479Z,100345.58
2019-03-23T03:36:55.662Z,100345.61
2019-03-23T03:37:26.880Z,100343.00
2019-03-23T03:37:58.100Z,100349.48
2019-03-23T03:38:29.298Z,100351.20
2019-03-23T03:39:00.563Z,100345.62
2019-03-23T03:39:31.799Z,100345.19
2019-03-23T03:40:03.038Z,100349.49
2019-03-23T03:40:34.254Z,100344.73
2019-03-23T03:41:05.473Z,100341.29
2019-03-23T03:41:36.676Z,100346.02
2019-03-23T03:42:07.919Z,100345.19
2019-03-23T03:42:39.121Z,100346.48
2019-03-23T03:43:10.352Z,100347.33
2019-03-23T03:43:41.572Z,100347.33
2019-03-23T03:44:12.770Z,100345.16
2019-03-23T03:44:44.010Z,100348.21
2019-03-23T03:45:15.214Z,100341.28
2019-03-23T03:45:46.417Z,100345.16
2019-03-23T03:46:17.642Z,100343.88
2019-03-23T03:46:48.883Z,100347.77
2019-03-23T03:47:20.140Z,100344.75
2019-03-23T03:47:51.343Z,100346.46
2019-03-23T03:48:22.555Z,100344.31
2019-03-23T03:48:53.758Z,100344.33
2019-03-23T03:49:24.974Z,100348.20
2019-03-23T03:49:56.163Z,100343.88
2019-03-23T03:50:27.417Z,100344.73
2019-03-23T03:50:58.638Z,100347.78
2019-03-23T03:51:29.843Z,100342.16
2019-03-23T03:52:01.049Z,100346.05
2019-03-23T03:52:32.262Z,100343.89
2019-03-23T03:53:03.488Z,100341.72
2019-03-23T03:53:34.742Z,100348.63
2019-03-23T03:54:05.965Z,100348.20
2019-03-23T03:54:37.167Z,100352.08
2019-03-23T03:55:08.385Z,100347.34
2019-03-23T03:55:39.587Z,100346.01
2019-03-23T03:56:10.803Z,100348.18
2019-03-23T03:56:42.016Z,100349.92
2019-03-23T03:57:13.241Z,100348.20
2019-03-23T03:57:44.478Z,100346.91
2019-03-23T03:58:15.676Z,100347.76
2019-03-23T03:58:47.061Z,100348.64
2019-03-23T03:59:18.281Z,100341.27
2019-03-23T03:59:50.460Z,100344.74
2019-03-23T04:00:21.681Z,100346.48
2019-03-23T04:00:52.889Z,100346.45
2019-03-23T04:01:24.102Z,100343.43
2019-03-23T04:01:55.313Z,100337.82
2019-03-23T04:02:26.575Z,100341.70
2019-03-23T04:02:57.786Z,100338.70
2019-03-23T04:03:28.985Z,100340.39
2019-03-23T04:04:00.196Z,100333.49
2019-03-23T04:04:31.406Z,100333.94
2019-03-23T04:05:02.605Z,100336.94
2019-03-23T04:05:33.809Z,100336.95
2019-03-23T04:06:05.007Z,100336.96
2019-03-23T04:06:36.215Z,100338.66
2019-03-23T04:07:07.419Z,100339.52
2019-03-23T04:07:38.661Z,100337.36
2019-03-23T04:08:11.941Z,100341.23
2019-03-23T04:08:42.799Z,100339.96
2019-03-23T04:09:14.001Z,100344.72
2019-03-23T04:09:45.218Z,100347.72
2019-03-23T04:10:16.441Z,100342.55
2019-03-23T04:10:47.646Z,100349.47
2019-03-23T04:11:18.885Z,100355.08
2019-03-23T04:11:50.089Z,100356.83
2019-03-23T04:12:21.305Z,100356.41
2019-03-23T04:12:52.489Z,100359.42
2019-03-23T04:13:23.708Z,100358.55
2019-03-23T04:13:54.943Z,100358.98
2019-03-23T04:14:26.157Z,100362.00
2019-03-23T04:14:57.347Z,100360.28
2019-03-23T04:15:28.554Z,100359.84
2019-03-23T04:15:59.757Z,100363.73
2019-03-23T04:16:30.999Z,100368.89
2019-03-23T04:17:02.187Z,100359.41
2019-03-23T04:17:33.406Z,100359.84
2019-03-23T04:18:04.616Z,100365.87
2019-03-23T04:18:35.881Z,100363.28
2019-03-23T04:19:07.091Z,100365.00
2019-03-23T04:19:38.296Z,100362.41
2019-03-23T04:20:09.544Z,100362.86
2019-03-23T04:20:40.787Z,100360.66
2019-03-23T04:21:12.000Z,100377.47
2019-03-23T04:21:43.199Z,100375.72
2019-03-23T04:22:14.406Z,100371.40
2019-03-23T04:22:45.640Z,100375.70
2019-03-23T04:23:16.839Z,100374.41
2019-03-23T04:23:48.055Z,100379.15
2019-03-23T04:24:19.282Z,100375.65
2019-03-23T04:24:50.462Z,100377.36
2019-03-23T04:25:21.694Z,100375.63
2019-03-23T04:25:52.932Z,100379.06
2019-03-23T04:26:24.142Z,100376.92
2019-03-23T04:26:55.387Z,100376.42
2019-03-23T04:27:26.574Z,100376.42
2019-03-23T04:27:57.791Z,100379.89
2019-03-23T04:28:28.980Z,100381.22
2019-03-23T04:29:00.202Z,100380.73
2019-03-23T04:29:31.393Z,100383.80
2019-03-23T04:30:02.597Z,100384.62
2019-03-23T04:30:33.982Z,100386.42
2019-03-23T04:31:05.227Z,100381.69
2019-03-23T04:31:36.449Z,100389.44
2019-03-23T04:32:07.653Z,100381.68
2019-03-23T04:32:38.897Z,100383.41
2019-03-23T04:33:10.108Z,100385.14
2019-03-23T04:33:41.307Z,100387.35
2019-03-23T04:34:12.513Z,100385.64
2019-03-23T04:34:43.711Z,100383.90
2019-03-23T04:35:14.927Z,100386.08
2019-03-23T04:35:46.139Z,100386.08
2019-03-23T04:36:17.341Z,100379.16
2019-03-23T04:36:48.542Z,100375.72
2019-03-23T04:37:19.756Z,100374.42
2019-03-23T04:37:51.016Z,100377.02
2019-03-23T04:38:23.310Z,100374.43
2019-03-23T04:38:54.723Z,100376.98
2019-03-23T04:39:25.929Z,100374.38
2019-03-23T04:39:57.130Z,100380.85
2019-03-23T04:40:28.328Z,100382.61
2019-03-23T04:40:59.535Z,100383.05
2019-03-23T04:41:30.801Z,100381.31
2019-03-23T04:42:01.994Z,100384.34
2019-03-23T04:42:33.222Z,100384.37
2019-03-23T04:43:04.433Z,100386.09
2019-03-23T04:43:35.687Z,100388.71
2019-03-23T04:44:06.886Z,100389.58
2019-03-23T04:44:38.097Z,100385.72
2019-03-23T04:45:09.309Z,100385.30
2019-03-23T04:45:40.587Z,100384.88
2019-03-23T04:46:11.810Z,100380.14
2019-03-23T04:46:43.983Z,100383.59
2019-03-23T04:47:15.364Z,100382.75
2019-03-23T04:47:47.059Z,100382.73
2019-03-23T04:48:18.329Z,100378.44
2019-03-23T04:48:49.602Z,100382.34
2019-03-23T04:49:20.818Z,100383.63
2019-03-23T04:49:52.043Z,100385.36
2019-03-23T04:50:23.240Z,100380.58
2019-03-23T04:50:54.445Z,100384.47
2019-03-23T04:51:25.662Z,100384.02
2019-03-23T04:51:56.861Z,100387.91
2019-03-23T04:52:28.108Z,100386.16
2019-03-23T04:52:59.320Z,100390.02
2019-03-23T04:53:30.544Z,100386.96
2019-03-23T04:54:01.747Z,100382.56
2019-03-23T04:54:32.955Z,100387.70
2019-03-23T04:55:04.170Z,100378.56
2019-03-23T04:55:35.378Z,100384.16
2019-03-23T04:56:06.572Z,100383.25
2019-03-23T04:56:37.775Z,100387.53
2019-03-23T04:57:09.991Z,100387.06
2019-03-23T04:57:41.228Z,100388.34
2019-03-23T04:58:12.437Z,100381.80
2019-03-23T04:58:43.634Z,100388.72
2019-03-23T04:59:14.843Z,100386.05
2019-03-23T04:59:46.065Z,100385.53
2019-03-23T05:00:17.278Z,100392.38
2019-03-23T05:00:48.528Z,100388.86
2019-03-23T05:01:19.739Z,100386.59
2019-03-23T05:01:50.939Z,100388.22
2019-03-23T05:02:22.237Z,100393.78
2019-03-23T05:02:53.437Z,100393.22
2019-03-23T05:03:24.653Z,100392.71
2019-03-23T05:03:55.910Z,100400.89
2019-03-23T05:04:27.104Z,100392.59
2019-03-23T05:04:58.369Z,100399.61
2019-03-23T05:05:29.569Z,100396.62
2019-03-23T05:06:00.772Z,100396.19
2019-03-23T05:06:32.031Z,100400.57
2019-03-23T05:07:03.232Z,100401.84
2019-03-23T05:07:34.471Z,100401.45
2019-03-23T05:08:05.690Z,100398.77
2019-03-23T05:08:36.912Z,100403.94
2019-03-23T05:09:08.122Z,100402.98
2019-03-23T05:09:39.323Z,100403.78
2019-03-23T05:10:10.516Z,100404.19
2019-03-23T05:10:41.722Z,100404.61
2019-03-23T05:11:12.966Z,100403.75
2019-03-23T05:11:44.169Z,100408.12
2019-03-23T05:12:15.365Z,100402.09
2019-03-23T05:12:46.570Z,100403.86
2019-03-23T05:13:17.769Z,100403.44
2019-03-23T05:13:49.010Z,100404.28
2019-03-23T05:14:20.208Z,100401.64
2019-03-23T05:14:51.450Z,100400.28
2019-03-23T05:15:22.665Z,100400.64
2019-03-23T05:15:53.854Z,100400.57
2019-03-23T05:16:25.057Z,100398.86
2019-03-23T05:16:56.261Z,100404.97
2019-03-23T05:17:27.461Z,100400.59
2019-03-23T05:17:58.670Z,100395.43
2019-03-23T05:18:29.866Z,100397.11
2019-03-23T05:19:01.119Z,100396.20
2019-03-23T05:19:32.332Z,100398.38
2019-03-23T05:20:03.529Z,100397.98
2019-03-23T05:20:34.737Z,100395.38
2019-03-23T05:21:06.096Z,100395.38
2019-03-23T05:21:37.321Z,100398.03
2019-03-23T05:22:08.539Z,100401.08
2019-03-23T05:22:39.941Z,100399.35
2019-03-23T05:23:11.149Z,100401.08
2019-03-23T05:23:42.215Z,100400.28
2019-03-23T05:24:13.437Z,100401.67
2019-03-23T05:24:44.642Z,100403.47
2019-03-23T05:25:15.870Z,100403.07
2019-03-23T05:25:47.074Z,100401.34
2019-03-23T05:26:18.270Z,100398.35
2019-03-23T05:26:49.478Z,100398.30
2019-03-23T05:27:20.675Z,100397.84
2019-03-23T05:27:51.938Z,100392.53
2019-03-23T05:28:23.150Z,100395.08
2019-03-23T05:28:54.363Z,100397.65
2019-03-23T05:29:25.574Z,100395.02
2019-03-23T05:29:56.773Z,100404.59
2019-03-23T05:30:27.991Z,100401.12
2019-03-23T05:30:59.233Z,100397.65
2019-03-23T05:31:30.434Z,100398.09
2019-03-23T05:32:01.642Z,100403.72
2019-03-23T05:32:32.860Z,100400.25
2019-03-23T05:33:04.056Z,100397.67
2019-03-23T05:33:35.273Z,100403.28
2019-03-23T05:34:06.490Z,100400.72
2019-03-23T05:34:37.692Z,100406.36
2019-03-23T05:35:08.901Z,100400.80
2019-03-23T05:35:40.111Z,100402.09
2019-03-23T05:36:11.380Z,100402.97
2019-03-23T05:36:42.584Z,100398.16
2019-03-23T05:37:13.788Z,100399.91
2019-03-23T05:37:44.986Z,100404.69
2019-03-23T05:38:16.185Z,100411.67
2019-03-23T05:38:47.391Z,100408.70
2019-03-23T05:39:18.595Z,100405.70
2019-03-23T05:39:49.802Z,100403.91
2019-03-23T05:40:21.056Z,100407.38
2019-03-23T05:40:52.268Z,100402.63
2019-03-23T05:41:23.478Z,100406.46
2019-03-23T05:41:54.670Z,100403.81
2019-03-23T05:42:25.884Z,100405.56
2019-03-23T05:42:57.128Z,100402.52
2019-03-23T05:43:28.366Z,100394.67
2019-03-23T05:43:59.589Z,100395.06
2019-03-23T05:44:30.843Z,100397.62
2019-03-23T05:45:02.046Z,100400.63
2019-03-23T05:45:33.348Z,100398.84
2019-03-23T05:46:04.529Z,100396.64
2019-03-23T05:46:35.738Z,100393.08
2019-03-23T05:47:06.936Z,100404.33
2019-03-23T05:47:38.148Z,100398.23
2019-03-23T05:48:09.383Z,100396.37
2019-03-23T05:48:40.599Z,100392.80
2019-03-23T05:49:11.880Z,100402.66
2019-03-23T05:49:43.139Z,100389.09
2019-03-23T05:50:14.346Z,100387.17
2019-03-23T05:50:45.611Z,100391.03
2019-03-23T05:51:16.809Z,100387.94
2019-03-23T05:51:48.009Z,100384.45
2019-03-23T05:52:19.221Z,100385.27
2019-03-23T05:52:50.611Z,100380.88
2019-03-23T05:53:21.831Z,100384.27
2019-03-23T05:53:53.032Z,100382.09
2019-03-23T05:54:24.244Z,100384.76
2019-03-23T05:54:55.461Z,100381.58
2019-03-23T05:55:26.707Z,100387.25
2019-03-23T05:55:57.961Z,100386.73
2019-03-23T05:56:29.168Z,100385.78